Terminal Aerodrome Forecast
Issued by NWS Twin Cities, MN

Home | Current Version | Previous Version | Text Only | Print | Product List | Glossary On
Versions: 1 2 3 4 5 6 7 8 9 10 11 12 13 14 15 16 17
000
FTUS43 KMPX 212000 AAA
TAFSTC
TAF AMD
KSTC 212054Z 2121/2218 14007KT P6SM BKN010
     FM220000 VRB04KT P6SM SKC
     FM220400 VRB03KT 4SM BR SCT003
     FM220700 00000KT 1/2SM FG VV001
     FM221400 35004KT 4SM BR OVC005=

USA.gov is the U.S. government's official web portal to all federal, state and local government web resources and services.